createdAt,value
2019-05-11T00:00:49.584Z,99.90
2019-05-11T00:03:18.046Z,99.90
2019-05-11T00:05:46.469Z,99.90
2019-05-11T00:08:15.014Z,99.90
2019-05-11T00:10:43.506Z,99.90
2019-05-11T00:13:11.964Z,99.90
2019-05-11T00:15:40.436Z,99.90
2019-05-11T00:18:08.930Z,99.90
2019-05-11T00:20:37.417Z,99.90
2019-05-11T00:23:05.882Z,99.90
2019-05-11T00:25:34.402Z,99.90
2019-05-11T00:28:02.963Z,99.90
2019-05-11T00:30:31.438Z,99.90
2019-05-11T00:32:59.881Z,99.90
2019-05-11T00:35:28.337Z,99.90
2019-05-11T00:37:56.786Z,99.90
2019-05-11T00:40:25.205Z,99.90
2019-05-11T00:42:53.671Z,99.90
2019-05-11T00:45:22.102Z,99.90
2019-05-11T00:47:50.566Z,99.90
2019-05-11T00:50:18.990Z,99.90
2019-05-11T00:52:47.517Z,99.90
2019-05-11T00:55:16.026Z,99.90
2019-05-11T00:57:44.488Z,99.90
2019-05-11T01:00:13.459Z,99.90
2019-05-11T01:02:41.888Z,99.90
2019-05-11T01:05:10.499Z,99.90
2019-05-11T01:07:38.919Z,99.90
2019-05-11T01:10:23.198Z,99.90
2019-05-11T01:12:38.888Z,99.90
2019-05-11T01:15:07.985Z,99.90
2019-05-11T01:17:36.416Z,99.90
2019-05-11T01:20:06.483Z,99.90
2019-05-11T01:22:34.914Z,99.90
2019-05-11T01:25:03.654Z,99.90
2019-05-11T01:27:32.079Z,99.90
2019-05-11T01:30:00.530Z,99.90
2019-05-11T01:32:28.954Z,99.90
2019-05-11T01:34:57.413Z,99.90
2019-05-11T01:37:25.878Z,99.90
2019-05-11T01:39:54.306Z,99.90
2019-05-11T01:42:22.770Z,99.90
2019-05-11T01:44:51.202Z,99.90
2019-05-11T01:47:19.663Z,99.90
2019-05-11T01:49:48.095Z,99.90
2019-05-11T01:52:16.561Z,99.90
2019-05-11T01:54:45.002Z,99.90
2019-05-11T01:57:13.435Z,99.90
2019-05-11T01:59:41.887Z,99.90
2019-05-11T02:02:10.330Z,99.90
2019-05-11T02:04:38.778Z,99.90
2019-05-11T02:07:07.285Z,99.90
2019-05-11T02:09:35.761Z,99.90
2019-05-11T02:12:04.213Z,99.90
2019-05-11T02:14:32.659Z,99.90
2019-05-11T02:17:01.171Z,99.90
2019-05-11T02:19:29.614Z,99.90
2019-05-11T02:21:58.073Z,99.90
2019-05-11T02:24:26.507Z,99.90
2019-05-11T02:26:55.136Z,99.90
2019-05-11T02:29:23.577Z,99.90
2019-05-11T02:31:52.057Z,99.90
2019-05-11T02:34:20.492Z,99.90
2019-05-11T02:36:48.982Z,99.90
2019-05-11T02:39:17.436Z,99.90
2019-05-11T02:41:45.857Z,99.90
2019-05-11T02:44:14.383Z,99.90
2019-05-11T02:46:42.815Z,99.90
2019-05-11T02:49:11.345Z,99.90
2019-05-11T02:51:40.522Z,99.90
2019-05-11T02:54:10.353Z,99.90
2019-05-11T02:56:38.783Z,99.90
2019-05-11T02:59:07.235Z,99.90
2019-05-11T03:01:35.719Z,99.90
2019-05-11T03:04:04.228Z,99.90
2019-05-11T03:06:32.682Z,99.90
2019-05-11T03:09:01.162Z,99.90
2019-05-11T03:11:29.587Z,99.90
2019-05-11T03:13:58.017Z,99.90
2019-05-11T03:16:26.467Z,99.90
2019-05-11T03:18:54.909Z,99.90
2019-05-11T03:21:23.398Z,99.90
2019-05-11T03:23:51.924Z,99.90
2019-05-11T03:26:20.427Z,99.90
2019-05-11T03:28:48.882Z,99.90
2019-05-11T03:31:17.369Z,99.90
2019-05-11T03:33:45.873Z,99.90
2019-05-11T03:36:14.414Z,99.90
2019-05-11T03:38:42.871Z,99.90
2019-05-11T03:41:11.306Z,99.90
2019-05-11T03:43:39.766Z,99.90
2019-05-11T03:46:08.210Z,99.90
2019-05-11T03:48:36.737Z,99.90
2019-05-11T03:51:05.311Z,99.90
2019-05-11T03:53:33.742Z,99.90
2019-05-11T03:56:02.190Z,99.90
2019-05-11T03:58:30.721Z,99.90
2019-05-11T04:00:59.148Z,99.90
2019-05-11T04:03:27.605Z,99.90
2019-05-11T04:05:56.046Z,99.90
2019-05-11T04:08:24.509Z,99.90
2019-05-11T04:10:52.944Z,99.90
2019-05-11T04:13:21.434Z,99.90
2019-05-11T04:15:49.868Z,99.90
2019-05-11T04:18:18.333Z,99.90
2019-05-11T04:20:46.786Z,99.90
2019-05-11T04:23:15.230Z,99.90
2019-05-11T04:25:44.163Z,99.90
2019-05-11T04:28:12.599Z,99.90
2019-05-11T04:30:41.055Z,99.90
2019-05-11T04:33:09.482Z,99.90
2019-05-11T04:35:37.972Z,99.90
2019-05-11T04:38:06.459Z,99.90
2019-05-11T04:40:34.923Z,99.90
2019-05-11T04:43:03.379Z,99.90
2019-05-11T04:45:31.821Z,99.90
2019-05-11T04:48:00.284Z,99.90
2019-05-11T04:50:28.746Z,99.90
2019-05-11T04:52:57.186Z,99.90
2019-05-11T04:55:25.637Z,99.90
2019-05-11T04:57:54.070Z,99.90
2019-05-11T05:00:22.981Z,99.90
2019-05-11T05:02:51.431Z,99.90
2019-05-11T05:05:19.894Z,99.90
2019-05-11T05:07:50.330Z,99.90
2019-05-11T05:10:22.064Z,99.90
2019-05-11T05:12:51.392Z,99.90
2019-05-11T05:15:18.886Z,99.90
2019-05-11T05:17:47.366Z,99.90
2019-05-11T05:20:16.253Z,99.90
2019-05-11T05:22:44.709Z,99.90
2019-05-11T05:25:13.278Z,99.90
2019-05-11T05:27:41.712Z,99.90
2019-05-11T05:30:11.298Z,99.90
2019-05-11T05:32:39.971Z,99.90
2019-05-11T05:35:08.741Z,99.90
2019-05-11T05:37:37.175Z,99.90
2019-05-11T05:40:05.820Z,99.90
2019-05-11T05:42:34.338Z,99.90
2019-05-11T05:45:02.844Z,99.90
2019-05-11T05:47:31.371Z,99.90
2019-05-11T05:49:59.808Z,99.90
2019-05-11T05:52:28.253Z,99.90
2019-05-11T05:54:56.687Z,99.90
2019-05-11T05:57:25.137Z,99.90
2019-05-11T05:59:53.602Z,99.90
2019-05-11T06:02:22.043Z,99.90
2019-05-11T06:04:50.574Z,99.90
2019-05-11T06:07:19.027Z,99.90
2019-05-11T06:09:47.542Z,99.90
2019-05-11T06:12:15.969Z,99.90
2019-05-11T06:14:44.422Z,99.90
2019-05-11T06:17:12.854Z,99.90
2019-05-11T06:19:41.331Z,99.90
2019-05-11T06:22:09.798Z,99.90
2019-05-11T06:24:38.318Z,99.90
2019-05-11T06:27:06.805Z,99.90
2019-05-11T06:29:35.351Z,99.90
2019-05-11T06:32:03.830Z,99.90
2019-05-11T06:34:32.281Z,99.90
2019-05-11T06:37:00.793Z,99.90
2019-05-11T06:39:29.257Z,99.90
2019-05-11T06:41:57.720Z,99.90
2019-05-11T06:44:26.440Z,99.90
2019-05-11T06:46:54.867Z,99.90
2019-05-11T06:49:23.346Z,99.90
2019-05-11T06:51:51.874Z,99.90
2019-05-11T06:54:20.305Z,99.90
2019-05-11T06:56:48.794Z,99.90
2019-05-11T06:59:17.218Z,99.90
2019-05-11T07:01:45.659Z,99.90
2019-05-11T07:04:14.135Z,99.90
2019-05-11T07:06:42.553Z,99.90
2019-05-11T07:09:11.014Z,99.90
2019-05-11T07:11:39.496Z,99.90
2019-05-11T07:14:20.055Z,99.90
2019-05-11T07:16:38.073Z,99.90
2019-05-11T07:19:06.624Z,99.90
2019-05-11T07:21:35.065Z,99.90
2019-05-11T07:24:03.493Z,99.90
2019-05-11T07:26:31.962Z,99.90
2019-05-11T07:29:00.429Z,99.90
2019-05-11T07:31:28.918Z,99.90
2019-05-11T07:33:58.755Z,99.90
2019-05-11T07:36:28.211Z,99.90
2019-05-11T07:38:58.001Z,99.90
2019-05-11T07:41:28.183Z,99.90
2019-05-11T07:43:58.885Z,99.90
2019-05-11T07:46:28.757Z,99.90
2019-05-11T07:48:58.427Z,99.90
2019-05-11T07:51:28.731Z,99.90
2019-05-11T07:53:57.927Z,99.90
2019-05-11T07:56:28.500Z,99.90
2019-05-11T07:58:58.101Z,99.90
2019-05-11T08:01:28.157Z,99.90
2019-05-11T08:03:58.577Z,99.90
2019-05-11T08:06:28.613Z,99.90
2019-05-11T08:08:58.756Z,99.90
2019-05-11T08:11:30.813Z,99.90
2019-05-11T08:13:58.390Z,99.90
2019-05-11T08:16:28.501Z,99.90
2019-05-11T08:18:58.885Z,99.90
2019-05-11T08:21:28.383Z,99.90
2019-05-11T08:23:58.742Z,99.90
2019-05-11T08:26:28.290Z,99.90
2019-05-11T08:28:57.885Z,99.90
2019-05-11T08:31:27.973Z,99.90
2019-05-11T08:33:58.331Z,99.90
2019-05-11T08:36:28.909Z,99.90
2019-05-11T08:38:58.563Z,99.90
2019-05-11T08:41:28.096Z,99.90
2019-05-11T08:43:58.750Z,99.90
2019-05-11T08:46:27.935Z,99.90
2019-05-11T08:48:56.651Z,99.90
2019-05-11T08:51:25.090Z,99.90
2019-05-11T08:53:53.518Z,99.90
2019-05-11T08:56:21.975Z,99.90
2019-05-11T08:58:50.442Z,99.90
2019-05-11T09:01:18.989Z,99.90
2019-05-11T09:03:47.894Z,99.90
2019-05-11T09:06:17.910Z,99.90
2019-05-11T09:08:49.089Z,99.90
2019-05-11T09:11:18.847Z,99.90
2019-05-11T09:13:48.913Z,99.90
2019-05-11T09:16:18.975Z,99.90
2019-05-11T09:18:48.087Z,99.90
2019-05-11T09:21:18.814Z,99.90
2019-05-11T09:23:48.556Z,99.90
2019-05-11T09:26:18.170Z,99.90
2019-05-11T09:28:47.630Z,99.90
2019-05-11T09:31:18.587Z,99.90
2019-05-11T09:33:47.960Z,99.90
2019-05-11T09:36:18.049Z,99.90
2019-05-11T09:38:48.907Z,99.90
2019-05-11T09:41:18.006Z,99.90
2019-05-11T09:43:48.346Z,99.90
2019-05-11T09:46:18.777Z,99.90
2019-05-11T09:48:48.335Z,99.90
2019-05-11T09:51:18.513Z,99.90
2019-05-11T09:53:48.254Z,99.90
2019-05-11T09:56:18.423Z,99.90
2019-05-11T09:58:48.028Z,99.90
2019-05-11T10:01:18.376Z,99.90
2019-05-11T10:03:48.190Z,99.90
2019-05-11T10:06:19.087Z,99.90
2019-05-11T10:08:48.734Z,99.90
2019-05-11T10:11:18.947Z,99.90
2019-05-11T10:13:47.837Z,99.90
2019-05-11T10:16:17.884Z,99.90
2019-05-11T10:18:49.064Z,99.90
2019-05-11T10:21:18.728Z,99.90
2019-05-11T10:23:49.017Z,99.90
2019-05-11T10:26:18.661Z,99.90
2019-05-11T10:28:48.330Z,99.90
2019-05-11T10:31:18.067Z,99.90
2019-05-11T10:33:49.015Z,99.90
2019-05-11T10:36:18.867Z,99.90
2019-05-11T10:38:48.637Z,99.90
2019-05-11T10:41:18.075Z,99.90
2019-05-11T10:43:48.998Z,99.90
2019-05-11T10:46:23.088Z,99.90
2019-05-11T10:48:48.334Z,99.90
2019-05-11T10:51:18.411Z,99.90
2019-05-11T10:53:51.625Z,99.60
2019-05-11T10:56:18.000Z,99.00
2019-05-11T10:58:48.230Z,99.20
2019-05-11T11:01:18.139Z,99.50
2019-05-11T11:03:48.367Z,99.30
2019-05-11T11:06:18.778Z,98.50
2019-05-11T11:08:48.623Z,98.20
2019-05-11T11:11:18.435Z,98.70
2019-05-11T11:13:48.012Z,99.00
2019-05-11T11:16:32.721Z,98.70
2019-05-11T11:18:48.657Z,98.20
2019-05-11T11:21:22.677Z,98.60
2019-05-11T11:23:48.294Z,98.00
2019-05-11T11:26:18.425Z,97.60
2019-05-11T11:28:47.838Z,98.00
2019-05-11T11:31:18.673Z,97.90
2019-05-11T11:33:48.909Z,98.50
2019-05-11T11:36:17.856Z,98.50
2019-05-11T11:38:47.871Z,99.20
2019-05-11T11:41:18.638Z,99.90
2019-05-11T11:43:48.274Z,99.30
2019-05-11T11:46:18.871Z,99.30
2019-05-11T11:48:48.805Z,99.30
2019-05-11T11:51:18.746Z,98.80
2019-05-11T11:53:47.934Z,99.40
2019-05-11T11:56:18.939Z,99.40
2019-05-11T11:58:48.883Z,99.40
2019-05-11T12:01:18.947Z,99.30
2019-05-11T12:03:48.727Z,99.30
2019-05-11T12:06:18.282Z,99.30
2019-05-11T12:08:49.328Z,99.70
2019-05-11T12:11:18.753Z,99.10
2019-05-11T12:13:47.793Z,99.30
2019-05-11T12:16:18.029Z,99.40
2019-05-11T12:18:48.646Z,99.30
2019-05-11T12:21:18.507Z,99.70
2019-05-11T12:23:48.648Z,98.90
2019-05-11T12:26:17.852Z,98.60
2019-05-11T12:28:48.754Z,98.50
2019-05-11T12:31:18.396Z,98.30
2019-05-11T12:33:48.345Z,98.40
2019-05-11T12:36:18.852Z,98.70
2019-05-11T12:38:48.879Z,97.70
2019-05-11T12:41:19.119Z,97.30
2019-05-11T12:43:48.924Z,97.60
2019-05-11T12:46:18.930Z,97.60
2019-05-11T12:48:48.470Z,97.20
2019-05-11T12:51:18.552Z,97.00
2019-05-11T12:53:47.735Z,96.50
2019-05-11T12:56:18.703Z,96.30
2019-05-11T12:58:48.963Z,95.90
2019-05-11T13:01:18.687Z,95.20
2019-05-11T13:03:49.003Z,95.20
2019-05-11T13:06:19.099Z,94.50
2019-05-11T13:08:48.051Z,94.50
2019-05-11T13:11:18.655Z,94.60
2019-05-11T13:13:48.382Z,95.60
2019-05-11T13:16:18.398Z,95.30
2019-05-11T13:18:48.755Z,95.50
2019-05-11T13:21:18.282Z,94.90
2019-05-11T13:23:48.865Z,94.30
2019-05-11T13:26:18.085Z,94.10
2019-05-11T13:28:48.347Z,93.90
2019-05-11T13:31:18.585Z,92.90
2019-05-11T13:33:47.939Z,92.80
2019-05-11T13:36:18.683Z,93.80
2019-05-11T13:38:48.198Z,94.60
2019-05-11T13:41:18.957Z,94.00
2019-05-11T13:43:48.568Z,93.90
2019-05-11T13:46:18.005Z,93.40
2019-05-11T13:48:47.620Z,92.50
2019-05-11T13:51:18.358Z,92.20
2019-05-11T13:53:48.207Z,92.00
2019-05-11T13:56:18.431Z,92.30
2019-05-11T13:58:48.823Z,92.00
2019-05-11T14:01:18.454Z,91.40
2019-05-11T14:03:48.461Z,91.10
2019-05-11T14:08:48.230Z,91.30
2019-05-11T14:11:18.151Z,91.60
2019-05-11T14:13:48.033Z,91.90
2019-05-11T14:16:18.672Z,92.10
2019-05-11T14:18:48.902Z,91.80
2019-05-11T14:21:18.578Z,91.70
2019-05-11T14:23:48.436Z,91.10
2019-05-11T14:26:19.138Z,91.40
2019-05-11T14:28:48.103Z,91.80
2019-05-11T14:31:18.930Z,91.90
2019-05-11T14:32:21.057Z,91.90
2019-05-11T14:33:48.954Z,91.70
2019-05-11T14:36:18.370Z,91.70
2019-05-11T14:38:48.758Z,91.90
2019-05-11T14:41:18.200Z,91.80
2019-05-11T14:43:48.993Z,91.60
2019-05-11T14:46:18.078Z,90.90
2019-05-11T14:48:48.106Z,91.00
2019-05-11T14:51:18.006Z,90.60
2019-05-11T14:53:48.122Z,90.10
2019-05-11T14:56:18.957Z,88.50
2019-05-11T14:58:49.062Z,89.10
2019-05-11T15:01:18.363Z,88.50
2019-05-11T15:03:48.585Z,89.00
2019-05-11T15:06:18.860Z,89.00
2019-05-11T15:08:47.961Z,90.20
2019-05-11T15:11:18.878Z,89.10
2019-05-11T15:13:48.778Z,87.20
2019-05-11T15:16:18.671Z,86.00
2019-05-11T15:18:48.542Z,85.60
2019-05-11T15:21:18.914Z,86.00
2019-05-11T15:23:47.952Z,86.60
2019-05-11T15:26:18.453Z,86.00
2019-05-11T15:28:48.495Z,86.20
2019-05-11T15:31:21.846Z,87.50
2019-05-11T15:33:48.812Z,87.90
2019-05-11T15:36:19.277Z,86.80
2019-05-11T15:38:48.304Z,86.90
2019-05-11T15:41:17.669Z,85.70
2019-05-11T15:43:48.088Z,83.80
2019-05-11T15:46:19.532Z,83.60
2019-05-11T15:48:56.664Z,83.10
2019-05-11T15:51:18.761Z,84.30
2019-05-11T15:53:47.561Z,84.00
2019-05-11T15:56:18.975Z,82.00
2019-05-11T15:58:48.556Z,82.50
2019-05-11T16:01:18.554Z,81.70
2019-05-11T16:03:49.675Z,82.30
2019-05-11T16:06:18.519Z,81.80
2019-05-11T16:08:47.335Z,82.20
2019-05-11T16:11:17.995Z,81.90
2019-05-11T16:13:48.233Z,81.60
2019-05-11T16:16:16.335Z,81.50
2019-05-11T16:18:44.795Z,81.60
2019-05-11T16:21:13.230Z,80.90
2019-05-11T16:23:42.158Z,79.90
2019-05-11T16:26:10.597Z,78.70
2019-05-11T16:28:39.025Z,80.10
2019-05-11T16:31:10.258Z,79.40
2019-05-11T16:33:38.694Z,78.30
2019-05-11T16:36:08.995Z,78.90
2019-05-11T16:38:38.053Z,78.10
2019-05-11T16:41:08.985Z,77.10
2019-05-11T16:43:38.510Z,77.60
2019-05-11T16:46:08.671Z,77.40
2019-05-11T16:48:38.315Z,76.70
2019-05-11T16:51:08.634Z,76.70
2019-05-11T16:53:38.997Z,76.70
2019-05-11T16:56:08.431Z,76.80
2019-05-11T16:58:40.612Z,77.50
2019-05-11T17:01:08.659Z,76.30
2019-05-11T17:03:38.430Z,76.30
2019-05-11T17:06:08.360Z,76.70
2019-05-11T17:08:38.413Z,77.10
2019-05-11T17:11:08.153Z,77.40
2019-05-11T17:13:38.047Z,78.40
2019-05-11T17:16:08.765Z,78.70
2019-05-11T17:18:37.037Z,79.20
2019-05-11T17:21:07.637Z,79.50
2019-05-11T17:23:38.072Z,79.70
2019-05-11T17:26:08.502Z,79.80
2019-05-11T17:28:37.861Z,80.10
2019-05-11T17:31:08.053Z,79.90
2019-05-11T17:33:38.432Z,79.60
2019-05-11T17:36:08.406Z,80.30
2019-05-11T17:38:38.974Z,82.00
2019-05-11T17:41:08.497Z,81.90
2019-05-11T17:43:38.602Z,83.20
2019-05-11T17:46:08.147Z,83.50
2019-05-11T17:48:38.830Z,85.10
2019-05-11T17:51:20.927Z,86.20
2019-05-11T17:53:37.790Z,86.90
2019-05-11T17:56:06.477Z,88.00
2019-05-11T17:58:37.673Z,87.50
2019-05-11T18:01:05.571Z,88.60
2019-05-11T18:03:34.040Z,88.70
2019-05-11T18:06:02.471Z,88.10
2019-05-11T18:08:31.161Z,88.40
2019-05-11T18:10:59.717Z,89.10
2019-05-11T18:13:28.539Z,89.20
2019-05-11T18:15:57.795Z,89.00
2019-05-11T18:18:28.921Z,89.50
2019-05-11T18:20:57.829Z,90.10
2019-05-11T18:23:28.230Z,90.20
2019-05-11T18:25:57.254Z,90.60
2019-05-11T18:28:25.860Z,90.60
2019-05-11T18:30:54.324Z,91.00
2019-05-11T18:33:22.763Z,91.10
2019-05-11T18:35:51.289Z,91.00
2019-05-11T18:38:19.725Z,90.90
2019-05-11T18:40:48.641Z,91.50
2019-05-11T18:43:18.837Z,91.50
2019-05-11T18:45:48.819Z,91.30
2019-05-11T18:48:18.576Z,91.30
2019-05-11T18:50:49.086Z,91.50
2019-05-11T18:53:18.672Z,91.60
2019-05-11T18:55:48.710Z,91.80
2019-05-11T18:58:18.422Z,92.00
2019-05-11T19:00:49.578Z,92.10
2019-05-11T19:03:19.258Z,92.20
2019-05-11T19:05:48.286Z,92.50
2019-05-11T19:08:19.008Z,93.00
2019-05-11T19:10:48.731Z,92.80
2019-05-11T19:13:17.588Z,93.20
2019-05-11T19:15:48.496Z,93.30
2019-05-11T19:18:16.307Z,93.60
2019-05-11T19:20:47.061Z,93.50
2019-05-11T19:23:15.239Z,93.90
2019-05-11T19:25:43.690Z,93.70
2019-05-11T19:28:12.124Z,93.70
2019-05-11T19:30:40.597Z,93.30
2019-05-11T19:33:11.260Z,93.10
2019-05-11T19:35:39.414Z,92.80
2019-05-11T19:38:08.651Z,92.90
2019-05-11T19:40:38.331Z,92.90
2019-05-11T19:43:08.221Z,93.10
2019-05-11T19:45:38.386Z,93.20
2019-05-11T19:48:08.436Z,93.30
2019-05-11T19:50:40.317Z,93.40
2019-05-11T19:53:08.441Z,93.60
2019-05-11T19:55:37.350Z,93.70
2019-05-11T19:58:05.900Z,93.40
2019-05-11T20:00:34.512Z,93.40
2019-05-11T20:03:03.019Z,93.50
2019-05-11T20:05:31.550Z,93.60
2019-05-11T20:08:00.118Z,94.00
2019-05-11T20:10:28.710Z,94.20
2019-05-11T20:12:58.824Z,94.40
2019-05-11T20:15:27.611Z,94.40
2019-05-11T20:17:58.469Z,94.60
2019-05-11T20:20:28.222Z,94.70
2019-05-11T20:22:58.366Z,94.90
2019-05-11T20:25:28.510Z,94.80
2019-05-11T20:27:58.517Z,95.20
2019-05-11T20:30:27.139Z,95.10
2019-05-11T20:32:55.658Z,95.20
2019-05-11T20:35:24.166Z,95.30
2019-05-11T20:37:52.740Z,95.60
2019-05-11T20:40:21.335Z,95.50
2019-05-11T20:42:49.781Z,95.70
2019-05-11T20:45:18.814Z,96.00
2019-05-11T20:47:48.793Z,96.10
2019-05-11T20:50:18.520Z,96.10
2019-05-11T20:52:48.132Z,96.30
2019-05-11T20:55:18.173Z,96.60
2019-05-11T20:57:48.228Z,96.70
2019-05-11T21:00:18.761Z,96.70
2019-05-11T21:02:48.645Z,96.90
2019-05-11T21:05:18.250Z,97.00
2019-05-11T21:07:47.022Z,97.10
2019-05-11T21:10:15.886Z,97.20
2019-05-11T21:12:44.335Z,97.20
2019-05-11T21:15:13.017Z,97.40
2019-05-11T21:17:41.694Z,98.00
2019-05-11T21:20:10.705Z,97.60
2019-05-11T21:22:40.568Z,97.80
2019-05-11T21:25:10.456Z,98.00
2019-05-11T21:27:39.725Z,98.20
2019-05-11T21:30:09.970Z,98.40
2019-05-11T21:32:39.499Z,98.30
2019-05-11T21:35:08.947Z,98.40
2019-05-11T21:37:38.703Z,98.70
2019-05-11T21:40:09.509Z,98.70
2019-05-11T21:42:39.402Z,98.80
2019-05-11T21:45:10.297Z,98.70
2019-05-11T21:47:39.377Z,98.80
2019-05-11T21:50:09.208Z,98.90
2019-05-11T21:52:38.609Z,99.20
2019-05-11T21:55:09.362Z,99.20
2019-05-11T21:57:38.663Z,99.20
2019-05-11T22:00:10.293Z,99.40
2019-05-11T22:02:39.125Z,99.50
2019-05-11T22:05:09.267Z,99.90
2019-05-11T22:07:38.848Z,99.90
2019-05-11T22:10:09.488Z,99.90
2019-05-11T22:12:39.022Z,99.90
2019-05-11T22:15:09.735Z,99.80
2019-05-11T22:17:39.682Z,99.90
2019-05-11T22:20:09.236Z,99.90
2019-05-11T22:22:39.082Z,99.90
2019-05-11T22:25:09.194Z,99.80
2019-05-11T22:27:38.695Z,99.60
2019-05-11T22:30:09.043Z,99.50
2019-05-11T22:32:38.338Z,99.60
2019-05-11T22:35:08.844Z,99.60
2019-05-11T22:37:38.601Z,99.80
2019-05-11T22:40:08.838Z,99.90
2019-05-11T22:42:37.931Z,99.80
2019-05-11T22:45:08.671Z,99.90
2019-05-11T22:47:39.193Z,99.80
2019-05-11T22:50:09.806Z,99.60
2019-05-11T22:52:40.470Z,99.80
2019-05-11T22:55:12.112Z,99.70
2019-05-11T22:57:39.569Z,99.90
2019-05-11T23:00:11.615Z,99.90
2019-05-11T23:02:40.121Z,99.90
2019-05-11T23:05:10.589Z,99.90
2019-05-11T23:07:41.509Z,99.90
2019-05-11T23:10:10.317Z,99.90
2019-05-11T23:12:39.003Z,99.90
2019-05-11T23:15:14.708Z,99.90
2019-05-11T23:17:43.361Z,99.90
2019-05-11T23:20:12.482Z,99.90
2019-05-11T23:22:57.498Z,99.90
2019-05-11T23:25:19.924Z,99.90
2019-05-11T23:27:48.994Z,99.90
2019-05-11T23:30:20.212Z,99.90
2019-05-11T23:32:49.752Z,99.90
2019-05-11T23:35:18.982Z,99.90
2019-05-11T23:37:49.602Z,99.90
2019-05-11T23:40:18.687Z,99.90
2019-05-11T23:42:49.043Z,99.90
2019-05-11T23:45:18.788Z,99.90
2019-05-11T23:47:48.898Z,99.90
2019-05-11T23:50:18.887Z,99.90
2019-05-11T23:52:48.784Z,99.90
2019-05-11T23:55:19.037Z,99.90
2019-05-11T23:57:48.671Z,99.90
